This is the latest recevied weather packets stored in our database for station/object OK2ILA-10. If no packets are shown the sender has not sent any weather packets the latest 1 day(s).
| Time | Temp. | Humidity | Pressure | Rain* | Wind** | Luminosity | Snow |
|---|---|---|---|---|---|---|---|
| 1778069211 | 22.78° C | 48% | 1009.5 hPa | - | - | - | - |
| 1778068611 | 23.89° C | 48% | 1009.5 hPa | - | - | - | - |
| 1778068011 | 22.78° C | 50% | 1009.5 hPa | - | - | - | - |
| 1778067411 | 22.78° C | 49% | 1009.6 hPa | - | - | - | - |
| 1778067407 | 22.78° C | 49% | 1009.6 hPa | - | - | - | - |
| 1778065610 | 22.78° C | 49% | 1009.6 hPa | - | - | - | - |
| 1778065006 | 22.78° C | 49% | 1009.6 hPa | - | - | - | - |
| 1778064406 | 22.22° C | 48% | 1009.8 hPa | - | - | - | - |
| 1778062609 | 21.67° C | 51% | 1009.8 hPa | - | - | - | - |
| 1778062605 | 21.67° C | 51% | 1009.8 hPa | - | - | - | - |
| 1778062005 | 22.22° C | 51% | 1009.8 hPa | - | - | - | - |
| 1778061405 | 21.67° C | 52% | 1009.9 hPa | - | - | - | - |
| 1778060208 | 22.22° C | 53% | 1009.7 hPa | - | - | - | - |
| 1778059608 | 21.11° C | 56% | 1009.8 hPa | - | - | - | - |
| 1778059604 | 21.11° C | 56% | 1009.8 hPa | - | - | - | - |
| 1778059008 | 21.11° C | 56% | 1009.8 hPa | - | - | - | - |
| 1778059004 | 21.11° C | 56% | 1009.8 hPa | - | - | - | - |
| 1778057807 | 21.67° C | 55% | 1009.7 hPa | - | - | - | - |
| 1778057203 | 22.22° C | 53% | 1009.7 hPa | - | - | - | - |
| 1778056607 | 20.56° C | 57% | 1009.6 hPa | - | - | - | - |
| 1778056603 | 20.56° C | 57% | 1009.6 hPa | - | - | - | - |
| 1778056007 | 20.56° C | 56% | 1009.5 hPa | - | - | - | - |
| 1778056003 | 20.56° C | 56% | 1009.5 hPa | - | - | - | - |
| 1778054802 | 22.22° C | 52% | 1009.3 hPa | - | - | - | - |
| 1778054206 | 22.22° C | 53% | 1009.3 hPa | - | - | - | - |
* Rain since midnight (hover to see other rain measurements)
** Current wind speed in m/s (hover to see current wind gust speed)